Time;durP1;ratioP1;P1;durP2;ratioP2;P2;SDS_P1;SDS_P2;PMS_P1;PMS_P2;Temp;Humidity;BMP_temperature;BMP_pressure;BME280_temperature;BME280_humidity;BME280_pressure;Samples;Min_cycle;Max_cycle;Signal;HPM_P1;HPM_P2
2023/05/31 00:04:04;;;;;;;9.00;6.23;;;;;13.10;101961.00;;;;10404673;28;20212;-77
2023/05/31 00:09:07;;;;;;;7.10;5.83;;;;;13.10;101970.00;;;;10403992;28;20730;-76
2023/05/31 00:14:09;;;;;;;7.90;5.83;;;;;13.00;101960.00;;;;10404198;28;20317;-78
2023/05/31 00:19:11;;;;;;;7.43;5.53;;;;;13.00;101972.00;;;;10401817;28;20588;-78
2023/05/31 00:24:15;;;;;;;8.87;5.80;;;;;12.90;101970.00;;;;10403131;28;20541;-77
2023/05/31 00:29:17;;;;;;;7.23;5.83;;;;;12.80;101969.00;;;;10420672;28;20797;-76
2023/05/31 00:34:19;;;;;;;7.47;6.10;;;;;12.80;101968.00;;;;10405655;27;20213;-77
2023/05/31 00:39:21;;;;;;;7.93;6.47;;;;;12.70;101963.00;;;;10404246;28;20205;-78
2023/05/31 00:44:23;;;;;;;8.27;6.40;;;;;12.60;101960.00;;;;10388149;28;20769;-77
2023/05/31 00:49:26;;;;;;;6.57;5.77;;;;;12.50;101963.00;;;;10386272;28;20197;-77
2023/05/31 00:54:28;;;;;;;9.27;5.60;;;;;12.40;101959.00;;;;10406050;28;20213;-78
2023/05/31 00:59:30;;;;;;;6.83;6.13;;;;;12.30;101966.00;;;;10403817;28;20205;-77
2023/05/31 01:04:34;;;;;;;7.17;6.47;;;;;12.30;101972.00;;;;10410573;28;20272;-76
2023/05/31 01:09:42;;;;;;;7.87;6.93;;;;;12.20;101971.00;;;;10402527;28;20965;-76
2023/05/31 01:15:01;;;;;;;9.83;7.03;;;;;12.20;101978.00;;;;10403480;28;20257;-77
2023/05/31 01:20:08;;;;;;;8.10;5.87;;;;;12.10;101981.00;;;;10402628;28;20205;-75
2023/05/31 01:25:27;;;;;;;9.00;6.70;;;;;12.00;101969.00;;;;10426926;28;20678;-73
2023/05/31 01:30:30;;;;;;;8.17;6.80;;;;;12.00;101964.00;;;;10423719;28;20237;-77
2023/05/31 01:35:32;;;;;;;7.33;6.57;;;;;11.90;101965.00;;;;10403766;28;20262;-78
2023/05/31 01:40:35;;;;;;;8.07;6.97;;;;;11.90;101958.00;;;;10403329;28;20227;-77
2023/05/31 01:45:38;;;;;;;8.53;7.60;;;;;11.90;101956.00;;;;10401348;28;20328;-76
2023/05/31 01:50:43;;;;;;;8.67;7.13;;;;;11.90;101954.00;;;;10366681;28;20702;-76
2023/05/31 01:55:47;;;;;;;7.57;6.87;;;;;11.80;101956.00;;;;10410032;28;20236;-77
2023/05/31 02:00:49;;;;;;;9.53;7.33;;;;;11.80;101949.00;;;;10409955;28;20205;-77
2023/05/31 02:06:00;;;;;;;9.00;7.40;;;;;11.80;101950.00;;;;10396370;28;20347;-78
2023/05/31 02:11:02;;;;;;;10.50;7.80;;;;;11.70;101949.00;;;;10432758;28;20209;-78
2023/05/31 02:16:05;;;;;;;9.67;8.13;;;;;11.70;101937.00;;;;10480744;28;20205;-78
2023/05/31 02:21:07;;;;;;;8.77;7.87;;;;;11.70;101932.00;;;;10407477;28;20197;-79
2023/05/31 02:26:09;;;;;;;9.13;8.23;;;;;11.60;101946.00;;;;10517017;28;20252;-73
2023/05/31 02:31:12;;;;;;;10.07;7.63;;;;;11.60;101939.00;;;;10516143;28;20201;-81
2023/05/31 02:36:14;;;;;;;9.43;8.10;;;;;11.50;101938.00;;;;10512137;28;20684;-75
2023/05/31 02:41:18;;;;;;;9.40;8.50;;;;;11.50;101939.00;;;;10484774;28;20209;-77
2023/05/31 02:46:20;;;;;;;12.73;8.57;;;;;11.50;101941.00;;;;10515185;28;20220;-80
2023/05/31 02:51:22;;;;;;;9.80;8.80;;;;;11.40;101944.00;;;;10514413;28;20240;-73
2023/05/31 02:56:53;;;;;;;12.10;9.13;;;;;11.40;101938.00;;;;10459738;28;20694;-82
2023/05/31 03:01:56;;;;;;;12.20;8.83;;;;;11.30;101938.00;;;;10520882;28;20252;-81
2023/05/31 03:07:07;;;;;;;11.77;9.40;;;;;11.20;101942.00;;;;10543652;28;20248;-76
2023/05/31 03:12:10;;;;;;;10.63;9.47;;;;;11.20;101936.00;;;;10508860;28;20570;-76
2023/05/31 03:17:13;;;;;;;11.77;8.80;;;;;11.10;101933.00;;;;10509783;28;20207;-76
2023/05/31 03:22:16;;;;;;;10.93;9.70;;;;;11.10;101934.00;;;;10520780;28;20225;-81
2023/05/31 03:27:18;;;;;;;11.47;10.20;;;;;11.10;101936.00;;;;10508915;28;20205;-76
2023/05/31 03:32:20;;;;;;;10.77;9.67;;;;;11.00;101931.00;;;;10508384;28;20740;-76
2023/05/31 03:37:23;;;;;;;11.47;9.80;;;;;11.00;101934.00;;;;10496993;28;20673;-76
2023/05/31 03:42:32;;;;;;;10.40;9.30;;;;;11.00;101941.00;;;;10509828;28;20237;-77
2023/05/31 03:47:35;;;;;;;12.13;10.20;;;;;11.00;101935.00;;;;10500994;28;20194;-78
2023/05/31 03:52:37;;;;;;;13.17;10.23;;;;;11.10;101940.00;;;;10506080;28;20301;-73
2023/05/31 03:57:39;;;;;;;13.07;10.57;;;;;11.10;101940.00;;;;10519953;28;20205;-73
2023/05/31 04:02:42;;;;;;;13.73;10.10;;;;;11.30;101933.00;;;;10501980;28;20240;-82
2023/05/31 04:08:04;;;;;;;11.53;10.33;;;;;11.30;101948.00;;;;10516009;28;20255;-78
2023/05/31 04:13:07;;;;;;;12.97;10.77;;;;;11.40;101942.00;;;;10481019;28;20189;-77
2023/05/31 04:18:09;;;;;;;11.33;10.23;;;;;11.50;101945.00;;;;10515788;28;20209;-75
2023/05/31 04:23:11;;;;;;;14.93;10.73;;;;;11.60;101938.00;;;;10474315;28;20260;-78
2023/05/31 04:28:15;;;;;;;12.37;10.63;;;;;11.60;101942.00;;;;10499484;28;20661;-74
2023/05/31 04:33:17;;;;;;;17.53;11.17;;;;;11.70;101954.00;;;;10490542;28;20210;-75
2023/05/31 04:38:22;;;;;;;14.50;11.23;;;;;11.80;101956.00;;;;10495440;28;20232;-76
2023/05/31 04:43:28;;;;;;;13.43;11.70;;;;;11.90;101957.00;;;;10487677;28;20221;-73
2023/05/31 04:48:31;;;;;;;12.97;10.87;;;;;12.10;101963.00;;;;10520516;28;20204;-79
2023/05/31 04:53:33;;;;;;;14.00;11.73;;;;;12.20;101953.00;;;;10508309;28;20662;-76
2023/05/31 04:58:36;;;;;;;15.23;11.67;;;;;12.50;101954.00;;;;10514700;28;20201;-72
2023/05/31 05:03:39;;;;;;;14.17;12.67;;;;;12.80;101951.00;;;;10529076;28;20228;-80
2023/05/31 05:08:43;;;;;;;14.70;12.73;;;;;13.20;101944.00;;;;10514844;28;20221;-73
2023/05/31 05:13:45;;;;;;;17.83;12.40;;;;;13.50;101944.00;;;;10518710;28;20681;-76
2023/05/31 05:18:48;;;;;;;15.27;13.30;;;;;13.80;101946.00;;;;10499807;28;20200;-77
2023/05/31 05:23:51;;;;;;;14.60;11.67;;;;;14.20;101941.00;;;;10513959;28;20312;-76
2023/05/31 05:28:53;;;;;;;14.17;12.67;;;;;14.50;101943.00;;;;10495578;28;20208;-76
2023/05/31 05:33:56;;;;;;;15.33;12.30;;;;;14.90;101937.00;;;;10525915;28;20212;-82
2023/05/31 05:39:03;;;;;;;13.90;11.57;;;;;15.50;101958.00;;;;10502239;28;20284;-81
2023/05/31 05:44:07;;;;;;;12.17;10.83;;;;;16.00;101949.00;;;;10506258;28;20775;-81
2023/05/31 05:49:11;;;;;;;12.40;11.10;;;;;16.20;101942.00;;;;10495090;28;20223;-81
2023/05/31 05:54:13;;;;;;;16.65;10.70;;;;;16.50;101937.00;;;;10519588;28;20210;-80
2023/05/31 05:59:16;;;;;;;11.60;10.32;;;;;16.70;101949.00;;;;10489695;28;20281;-81
2023/05/31 06:04:47;;;;;;;11.95;10.75;;;;;17.00;101951.00;;;;10511065;28;20308;-80
2023/05/31 06:09:49;;;;;;;11.90;10.65;;;;;17.30;101958.00;;;;10529490;28;20204;-77
2023/05/31 06:14:52;;;;;;;13.00;10.77;;;;;17.50;101953.00;;;;10516966;28;20689;-76
2023/05/31 06:19:57;;;;;;;14.70;10.30;;;;;17.80;101946.00;;;;10502998;28;20288;-78
2023/05/31 06:24:59;;;;;;;11.23;9.93;;;;;18.10;101942.00;;;;10505454;28;20234;-80
2023/05/31 06:30:02;;;;;;;11.80;10.40;;;;;18.60;101946.00;;;;10504733;28;20603;-80
2023/05/31 06:35:11;;;;;;;11.98;10.25;;;;;18.90;101955.00;;;;10517738;28;20690;-79
2023/05/31 06:40:13;;;;;;;15.93;10.75;;;;;19.20;101951.00;;;;10499304;28;20200;-81
2023/05/31 06:45:17;;;;;;;10.88;9.57;;;;;19.60;101950.00;;;;10506809;28;20589;-77
2023/05/31 06:50:25;;;;;;;11.40;10.05;;;;;20.00;101956.00;;;;10423599;28;20946;-75
2023/05/31 06:55:45;;;;;;;11.55;9.38;;;;;20.20;101944.00;;;;10514400;28;20208;-75
2023/05/31 07:00:50;;;;;;;10.80;9.60;;;;;20.40;101955.00;;;;10427932;28;20248;-75
2023/05/31 07:05:52;;;;;;;10.35;9.15;;;;;20.70;101945.00;;;;10432803;28;20221;-79
2023/05/31 07:10:55;;;;;;;12.75;9.55;;;;;21.30;101943.00;;;;10480183;28;20272;-78
2023/05/31 07:15:57;;;;;;;9.82;8.82;;;;;21.80;101933.00;;;;10462963;28;20201;-77
2023/05/31 07:20:59;;;;;;;9.55;8.55;;;;;22.20;101928.00;;;;10392311;28;20307;-78
2023/05/31 07:26:02;;;;;;;13.18;9.43;;;;;22.60;101935.00;;;;10402891;28;20524;-79
2023/05/31 07:31:04;;;;;;;11.55;9.18;;;;;22.80;101929.00;;;;10399655;28;20289;-78
2023/05/31 07:36:06;;;;;;;9.88;8.88;;;;;23.20;101932.00;;;;10401219;28;20812;-79
2023/05/31 07:41:08;;;;;;;11.25;10.02;;;;;23.40;101926.00;;;;10402862;28;20249;-79
2023/05/31 07:46:11;;;;;;;11.98;9.15;;;;;23.70;101926.00;;;;10400392;28;20232;-79
2023/05/31 07:51:13;;;;;;;9.07;8.13;;;;;24.10;101920.00;;;;10447053;28;20755;-79
2023/05/31 07:56:15;;;;;;;10.43;8.25;;;;;24.30;101929.00;;;;10536888;28;20197;-76
2023/05/31 08:01:17;;;;;;;11.30;8.80;;;;;24.50;101923.00;;;;10535266;28;20440;-83
2023/05/31 08:06:20;;;;;;;15.68;8.82;;;;;24.70;101913.00;;;;10423801;28;20271;-80
2023/05/31 08:11:22;;;;;;;12.57;8.77;;;;;24.90;101916.00;;;;10464153;28;20197;-80
2023/05/31 08:16:24;;;;;;;12.48;8.52;;;;;25.20;101906.00;;;;10495867;28;20618;-74
2023/05/31 08:21:26;;;;;;;9.95;7.72;;;;;25.40;101911.00;;;;10497841;28;20621;-74
2023/05/31 08:26:28;;;;;;;9.70;7.82;;;;;25.70;101904.00;;;;10515010;28;20726;-73
2023/05/31 08:31:31;;;;;;;12.18;8.30;;;;;26.00;101897.00;;;;10542341;28;20659;-76
2023/05/31 08:36:34;;;;;;;10.48;7.82;;;;;26.30;101899.00;;;;10542679;28;20235;-76
2023/05/31 08:41:47;;;;;;;13.75;8.40;;;;;26.60;101890.00;;;;10542838;28;20283;-78
2023/05/31 08:46:49;;;;;;;9.73;7.78;;;;;27.00;101897.00;;;;10542990;28;20217;-81
2023/05/31 08:51:52;;;;;;;11.30;7.35;;;;;27.30;101899.00;;;;10542523;28;20185;-82
2023/05/31 08:56:55;;;;;;;8.30;6.75;;;;;27.20;101887.00;;;;10542268;28;20189;-81
2023/05/31 09:01:58;;;;;;;12.18;6.55;;;;;27.60;101889.00;;;;10542933;28;20195;-82
2023/05/31 09:07:01;;;;;;;10.90;6.78;;;;;27.90;101885.00;;;;10540867;28;20244;-81
2023/05/31 09:12:03;;;;;;;9.93;7.05;;;;;28.10;101877.00;;;;10540586;28;20208;-75
2023/05/31 09:17:06;;;;;;;9.48;6.55;;;;;28.40;101873.00;;;;10541436;28;20200;-76
2023/05/31 09:22:08;;;;;;;14.15;7.90;;;;;28.50;101872.00;;;;10558182;28;20192;-74
2023/05/31 09:27:10;;;;;;;13.70;6.85;;;;;28.70;101871.00;;;;10541008;28;20270;-73
2023/05/31 09:32:12;;;;;;;11.05;6.35;;;;;28.80;101872.00;;;;10540014;28;20643;-73
2023/05/31 09:37:24;;;;;;;8.77;6.00;;;;;29.10;101865.00;;;;10540656;28;20596;-73
2023/05/31 09:42:28;;;;;;;9.50;6.75;;;;;29.20;101859.00;;;;10540519;28;20193;-73
2023/05/31 09:47:31;;;;;;;11.20;5.70;;;;;29.60;101847.00;;;;10492360;28;20227;-77
2023/05/31 09:52:37;;;;;;;9.90;5.95;;;;;29.70;101844.00;;;;10397110;28;20334;-77
2023/05/31 09:57:40;;;;;;;8.48;5.30;;;;;29.80;101834.00;;;;10399459;28;20299;-78
2023/05/31 10:02:54;;;;;;;9.68;5.22;;;;;29.80;101830.00;;;;10398986;28;20283;-77
2023/05/31 10:07:56;;;;;;;10.45;5.80;;;;;30.20;101823.00;;;;10397062;28;20220;-79
2023/05/31 10:13:02;;;;;;;9.55;4.03;;;;;30.50;101825.00;;;;10386757;28;21489;-77
2023/05/31 10:18:14;;;;;;;11.60;5.03;;;;;30.70;101827.00;;;;10402395;28;20892;-80
2023/05/31 10:23:24;;;;;;;8.57;4.97;;;;;31.20;101829.00;;;;10386672;28;20225;-79
2023/05/31 10:28:30;;;;;;;7.60;4.63;;;;;31.20;101823.00;;;;10403492;28;20213;-77
2023/05/31 10:33:32;;;;;;;8.55;5.00;;;;;31.50;101809.00;;;;10405336;28;20291;-78
2023/05/31 10:39:08;;;;;;;8.70;4.35;;;;;31.90;101807.00;;;;10408367;28;20290;-77
2023/05/31 10:44:17;;;;;;;11.82;3.88;;;;;31.70;101802.00;;;;10400891;28;20242;-78
2023/05/31 10:49:19;;;;;;;7.90;3.70;;;;;31.30;101798.00;;;;10416883;27;20758;-79
2023/05/31 10:54:27;;;;;;;7.18;3.13;;;;;31.50;101790.00;;;;10405601;28;20288;-78
2023/05/31 10:59:40;;;;;;;8.70;3.22;;;;;32.00;101792.00;;;;10404976;28;20564;-78
2023/05/31 11:04:44;;;;;;;9.88;2.88;;;;;32.00;101775.00;;;;10421407;28;20213;-78
2023/05/31 11:09:59;;;;;;;5.75;3.45;;;;;31.50;101783.00;;;;10472564;28;20292;-77
2023/05/31 11:15:04;;;;;;;6.20;3.08;;;;;31.60;101760.00;;;;10378636;28;20205;-79
2023/05/31 11:20:07;;;;;;;5.75;2.88;;;;;31.90;101757.00;;;;10397717;28;21548;-79
2023/05/31 11:25:20;;;;;;;6.80;2.72;;;;;32.30;101759.00;;;;10404621;28;20216;-75
2023/05/31 11:30:37;;;;;;;6.35;3.00;;;;;32.50;101757.00;;;;10515529;28;20199;-74
2023/05/31 11:35:40;;;;;;;7.93;3.22;;;;;32.90;101761.00;;;;10507197;28;20263;-74
2023/05/31 11:40:42;;;;;;;7.10;3.10;;;;;33.10;101765.00;;;;10531568;28;20213;-72
2023/05/31 11:45:46;;;;;;;7.78;3.00;;;;;32.90;101757.00;;;;10543953;28;20200;-72
2023/05/31 11:50:49;;;;;;;11.65;3.47;;;;;32.80;101748.00;;;;10518521;28;20225;-73
2023/05/31 11:55:52;;;;;;;9.80;3.30;;;;;33.10;101745.00;;;;10502508;28;20209;-73
2023/05/31 12:00:58;;;;;;;7.53;3.63;;;;;32.80;101747.00;;;;10515834;28;20657;-73
2023/05/31 12:06:02;;;;;;;5.15;3.40;;;;;32.40;101730.00;;;;10520784;27;20674;-72
2023/05/31 12:11:04;;;;;;;7.78;3.13;;;;;32.60;101731.00;;;;10501383;28;20209;-72
2023/05/31 12:16:07;;;;;;;6.65;2.60;;;;;32.40;101719.00;;;;10502487;28;20244;-79
2023/05/31 12:21:11;;;;;;;6.72;2.78;;;;;32.70;101715.00;;;;10501369;28;20209;-75
2023/05/31 12:26:14;;;;;;;7.75;3.00;;;;;33.00;101709.00;;;;10487802;28;20283;-74
2023/05/31 12:31:23;;;;;;;6.72;3.00;;;;;33.10;101708.00;;;;10501243;28;20193;-73
2023/05/31 12:36:26;;;;;;;3.83;2.28;;;;;33.30;101712.00;;;;10450190;28;20682;-80
2023/05/31 12:41:28;;;;;;;8.55;2.70;;;;;32.90;101700.00;;;;10348893;28;20203;-73
2023/05/31 12:46:37;;;;;;;7.43;2.80;;;;;32.80;101701.00;;;;10529915;28;20270;-73
2023/05/31 12:51:39;;;;;;;8.23;3.08;;;;;32.90;101691.00;;;;10540915;28;20201;-71
2023/05/31 12:56:42;;;;;;;5.68;2.78;;;;;32.60;101683.00;;;;10534930;28;20244;-73
2023/05/31 13:01:44;;;;;;;8.02;3.30;;;;;32.50;101686.00;;;;10501301;28;20254;-74
2023/05/31 13:06:46;;;;;;;9.00;3.05;;;;;32.60;101681.00;;;;10534827;28;20251;-74
2023/05/31 13:11:51;;;;;;;5.93;2.90;;;;;32.90;101668.00;;;;10538647;28;20204;-74
2023/05/31 13:16:54;;;;;;;5.60;2.70;;;;;33.10;101672.00;;;;10526729;28;20216;-72
2023/05/31 13:21:56;;;;;;;7.18;2.88;;;;;32.90;101666.00;;;;10540046;28;20606;-73
2023/05/31 13:26:58;;;;;;;9.85;3.35;;;;;32.70;101665.00;;;;10514943;28;20287;-73
2023/05/31 13:32:00;;;;;;;6.35;2.50;;;;;32.50;101663.00;;;;10534810;28;20189;-73
2023/05/31 13:37:03;;;;;;;5.53;3.03;;;;;32.40;101653.00;;;;10490952;28;20262;-76
2023/05/31 13:42:06;;;;;;;10.73;3.25;;;;;32.40;101657.00;;;;10483171;28;20284;-73
2023/05/31 13:47:08;;;;;;;8.93;2.95;;;;;32.50;101644.00;;;;10484909;28;20198;-73
2023/05/31 13:52:13;;;;;;;8.25;2.72;;;;;32.40;101642.00;;;;10495838;28;20209;-78
2023/05/31 13:57:15;;;;;;;7.20;2.60;;;;;32.10;101636.00;;;;10474486;28;20209;-81
2023/05/31 14:02:17;;;;;;;3.45;2.60;;;;;31.80;101631.00;;;;10467159;28;20217;-77
2023/05/31 14:07:20;;;;;;;9.05;2.75;;;;;32.10;101622.00;;;;10507127;28;20201;-78
2023/05/31 14:12:22;;;;;;;6.55;2.47;;;;;32.10;101618.00;;;;10521885;28;20201;-79
2023/05/31 14:17:24;;;;;;;6.80;2.88;;;;;31.80;101619.00;;;;10508082;28;20209;-78
2023/05/31 14:22:26;;;;;;;7.55;2.05;;;;;31.80;101615.00;;;;10519350;28;20217;-78
2023/05/31 14:27:28;;;;;;;4.80;2.47;;;;;31.80;101614.00;;;;10501439;28;20654;-78
2023/05/31 14:32:30;;;;;;;3.00;2.00;;;;;31.90;101614.00;;;;10544300;28;20291;-79
2023/05/31 14:37:33;;;;;;;5.25;2.75;;;;;32.20;101601.00;;;;10530082;28;20217;-78
2023/05/31 14:42:51;;;;;;;9.38;2.50;;;;;32.60;101603.00;;;;10516932;28;20239;-78
2023/05/31 14:47:53;;;;;;;5.72;2.60;;;;;33.10;101596.00;;;;10531254;28;20535;-78
2023/05/31 14:52:56;;;;;;;5.93;2.35;;;;;34.30;101582.00;;;;10537367;28;20662;-82
2023/05/31 14:57:58;;;;;;;7.50;2.85;;;;;35.10;101582.00;;;;10496644;28;21622;-79
2023/05/31 15:03:00;;;;;;;3.92;2.10;;;;;35.90;101581.00;;;;10497228;28;20205;-80
2023/05/31 15:08:02;;;;;;;5.25;2.22;;;;;36.80;101569.00;;;;10515948;28;20201;-72
2023/05/31 15:13:04;;;;;;;6.22;2.63;;;;;37.60;101576.00;;;;10516157;28;20284;-72
2023/05/31 15:18:06;;;;;;;5.28;2.30;;;;;37.90;101581.00;;;;10503434;28;20223;-76
2023/05/31 15:23:09;;;;;;;6.88;3.13;;;;;38.20;101577.00;;;;10530660;28;20236;-74
2023/05/31 15:28:11;;;;;;;7.38;2.50;;;;;37.20;101572.00;;;;10478844;28;20263;-75
2023/05/31 15:33:13;;;;;;;3.47;2.65;;;;;33.20;101577.00;;;;10504160;28;20288;-77
2023/05/31 15:38:15;;;;;;;6.03;2.70;;;;;31.70;101576.00;;;;10499499;28;20248;-76
2023/05/31 15:43:17;;;;;;;7.80;2.42;;;;;31.70;101568.00;;;;10486661;28;20214;-78
2023/05/31 15:48:22;;;;;;;4.65;2.80;;;;;30.20;101567.00;;;;10475875;28;20201;-78
2023/05/31 15:53:24;;;;;;;7.40;2.90;;;;;29.30;101560.00;;;;10516289;28;20663;-77
2023/05/31 15:58:26;;;;;;;8.93;2.50;;;;;28.50;101558.00;;;;10536357;27;20219;-79
2023/05/31 16:03:29;;;;;;;7.63;2.45;;;;;28.00;101560.00;;;;10485425;28;20193;-80
2023/05/31 16:08:31;;;;;;;8.88;2.88;;;;;27.70;101558.00;;;;10480673;28;20277;-79
2023/05/31 16:13:33;;;;;;;6.82;2.70;;;;;27.60;101563.00;;;;10509308;28;20209;-80
2023/05/31 16:18:35;;;;;;;5.82;2.45;;;;;27.80;101545.00;;;;10520056;28;20614;-79
2023/05/31 16:23:37;;;;;;;5.55;2.47;;;;;27.90;101551.00;;;;10491407;28;20287;-77
2023/05/31 16:28:39;;;;;;;8.43;2.60;;;;;27.70;101534.00;;;;10488248;28;20198;-77
2023/05/31 16:33:42;;;;;;;5.80;2.28;;;;;27.30;101535.00;;;;10485555;28;20746;-80
2023/05/31 16:38:44;;;;;;;4.32;2.83;;;;;26.70;101526.00;;;;10484440;28;20234;-79
2023/05/31 16:43:46;;;;;;;7.68;2.47;;;;;26.50;101531.00;;;;10445217;28;20586;-77
2023/05/31 16:48:48;;;;;;;5.90;2.85;;;;;26.40;101526.00;;;;10391899;28;20193;-78
2023/05/31 16:53:52;;;;;;;4.50;2.40;;;;;26.50;101530.00;;;;10457288;28;20196;-79
2023/05/31 16:58:54;;;;;;;6.50;3.15;;;;;26.40;101523.00;;;;10482139;28;20566;-79
2023/05/31 17:03:56;;;;;;;7.03;2.95;;;;;26.40;101522.00;;;;10483748;28;20531;-78
2023/05/31 17:08:58;;;;;;;6.32;3.70;;;;;26.30;101508.00;;;;10509833;28;20223;-81
2023/05/31 17:14:00;;;;;;;11.70;3.00;;;;;26.20;101510.00;;;;10460546;28;20205;-78
2023/05/31 17:19:03;;;;;;;7.15;3.63;;;;;26.10;101512.00;;;;10496511;28;20197;-80
2023/05/31 17:24:05;;;;;;;7.00;2.97;;;;;26.00;101513.00;;;;10503917;28;20654;-81
2023/05/31 17:29:08;;;;;;;6.00;2.88;;;;;25.90;101514.00;;;;10508648;28;20540;-81
2023/05/31 17:34:10;;;;;;;7.32;2.85;;;;;25.80;101509.00;;;;10513190;28;20236;-80
2023/05/31 17:39:12;;;;;;;9.38;3.30;;;;;25.70;101513.00;;;;10523371;28;20203;-80
2023/05/31 17:44:14;;;;;;;11.73;3.13;;;;;25.50;101505.00;;;;10487831;28;20204;-80
2023/05/31 17:49:16;;;;;;;8.18;3.00;;;;;25.40;101505.00;;;;10500602;28;20285;-79
2023/05/31 17:54:22;;;;;;;8.18;2.70;;;;;25.40;101509.00;;;;10498243;28;20228;-79
2023/05/31 17:59:24;;;;;;;6.10;3.03;;;;;25.20;101497.00;;;;10494318;28;20643;-82
2023/05/31 18:04:27;;;;;;;8.73;2.95;;;;;25.10;101504.00;;;;10485007;28;20213;-80
2023/05/31 18:09:29;;;;;;;7.78;2.28;;;;;25.00;101505.00;;;;10497405;28;20204;-79
2023/05/31 18:14:31;;;;;;;8.52;2.95;;;;;24.70;101501.00;;;;10489892;28;20217;-80
2023/05/31 18:19:34;;;;;;;7.35;3.38;;;;;24.60;101502.00;;;;10490185;28;20211;-80
2023/05/31 18:24:36;;;;;;;5.55;3.00;;;;;24.40;101501.00;;;;10498806;28;20650;-79
2023/05/31 18:29:38;;;;;;;3.97;2.50;;;;;24.30;101508.00;;;;10521082;27;20197;-80
2023/05/31 18:34:40;;;;;;;8.13;2.70;;;;;24.20;101507.00;;;;10509799;28;20221;-82
2023/05/31 18:39:42;;;;;;;7.63;3.38;;;;;24.20;101506.00;;;;10537177;28;20196;-79
2023/05/31 18:44:45;;;;;;;6.95;3.40;;;;;24.10;101511.00;;;;10501815;28;20654;-78
2023/05/31 18:49:48;;;;;;;7.65;3.35;;;;;24.00;101503.00;;;;10537498;27;20193;-78
2023/05/31 18:54:50;;;;;;;9.25;3.10;;;;;23.90;101507.00;;;;10487014;28;20709;-79
2023/05/31 18:59:52;;;;;;;8.27;2.90;;;;;23.80;101508.00;;;;10491555;28;20200;-78
2023/05/31 19:04:54;;;;;;;10.88;2.90;;;;;23.60;101509.00;;;;10486732;28;20240;-79
2023/05/31 19:09:56;;;;;;;8.73;3.08;;;;;23.40;101506.00;;;;10517516;28;20327;-79
2023/05/31 19:14:58;;;;;;;7.47;2.72;;;;;23.20;101509.00;;;;10519738;28;20266;-81
2023/05/31 19:20:00;;;;;;;7.03;2.80;;;;;23.00;101518.00;;;;10479818;28;20674;-79
2023/05/31 19:25:03;;;;;;;5.63;2.72;;;;;22.70;101526.00;;;;10462432;28;20460;-78
2023/05/31 19:30:06;;;;;;;8.60;3.20;;;;;22.40;101529.00;;;;10459677;28;20340;-82
2023/05/31 19:35:08;;;;;;;6.78;3.28;;;;;22.20;101529.00;;;;10464592;28;20193;-79
2023/05/31 19:40:11;;;;;;;6.20;2.97;;;;;22.00;101535.00;;;;10466752;28;20223;-78
2023/05/31 19:45:16;;;;;;;9.65;3.20;;;;;21.80;101543.00;;;;10464065;28;22520;-77
2023/05/31 19:50:18;;;;;;;5.55;2.92;;;;;21.60;101543.00;;;;10496996;28;20205;-79
2023/05/31 19:55:21;;;;;;;6.68;2.83;;;;;21.30;101539.00;;;;10537144;28;20197;-79
2023/05/31 20:00:23;;;;;;;7.75;3.75;;;;;21.10;101553.00;;;;10520015;28;20227;-79
2023/05/31 20:05:25;;;;;;;10.63;4.78;;;;;20.90;101556.00;;;;10505285;28;20221;-79
2023/05/31 20:10:27;;;;;;;10.13;4.15;;;;;20.70;101560.00;;;;10512465;28;20207;-78
2023/05/31 20:15:29;;;;;;;9.75;5.18;;;;;20.40;101547.00;;;;10484592;28;20193;-80
2023/05/31 20:20:31;;;;;;;12.32;5.20;;;;;20.30;101561.00;;;;10505474;28;20221;-80
2023/05/31 20:25:33;;;;;;;12.32;5.78;;;;;20.10;101568.00;;;;10517812;28;20236;-79
2023/05/31 20:30:35;;;;;;;12.02;5.60;;;;;20.00;101571.00;;;;10504367;28;20620;-79
2023/05/31 20:35:37;;;;;;;10.88;6.28;;;;;19.80;101576.00;;;;10521531;28;20204;-78
2023/05/31 20:40:41;;;;;;;11.45;6.15;;;;;19.60;101578.00;;;;10532407;28;20220;-79
2023/05/31 20:45:43;;;;;;;10.70;7.00;;;;;19.50;101578.00;;;;10542197;27;20212;-79
2023/05/31 20:50:45;;;;;;;9.80;7.57;;;;;19.30;101578.00;;;;10540638;28;20730;-78
2023/05/31 20:55:47;;;;;;;13.68;7.72;;;;;19.10;101577.00;;;;10540536;28;20696;-79
2023/05/31 21:00:50;;;;;;;14.73;8.57;;;;;19.00;101583.00;;;;10541504;28;20562;-79
2023/05/31 21:05:52;;;;;;;16.92;7.72;;;;;18.80;101594.00;;;;10540174;28;20267;-79
2023/05/31 21:10:54;;;;;;;12.63;7.63;;;;;18.70;101599.00;;;;10540992;28;20228;-77
2023/05/31 21:15:58;;;;;;;12.57;7.60;;;;;18.60;101602.00;;;;10541559;28;20220;-77
2023/05/31 21:21:00;;;;;;;14.82;7.60;;;;;18.40;101604.00;;;;10502074;28;20205;-78
2023/05/31 21:26:03;;;;;;;14.75;8.40;;;;;18.30;101613.00;;;;10498023;28;20239;-78
2023/05/31 21:31:05;;;;;;;14.27;8.32;;;;;18.10;101619.00;;;;10500066;28;20186;-78
2023/05/31 21:36:07;;;;;;;12.77;8.27;;;;;18.00;101623.00;;;;10499392;28;20651;-78
2023/05/31 21:41:09;;;;;;;13.77;8.02;;;;;17.90;101626.00;;;;10499564;28;20288;-78
2023/05/31 21:46:12;;;;;;;17.00;8.85;;;;;17.70;101625.00;;;;10497986;28;20217;-78
2023/05/31 21:51:14;;;;;;;16.08;9.18;;;;;17.60;101637.00;;;;10498163;28;20196;-79
2023/05/31 21:56:16;;;;;;;14.93;9.48;;;;;17.50;101631.00;;;;10536565;28;20204;-77
2023/05/31 22:01:18;;;;;;;12.23;8.05;;;;;17.30;101644.00;;;;10540967;28;20192;-77
2023/05/31 22:06:22;;;;;;;15.48;8.40;;;;;17.20;101640.00;;;;10531541;28;20678;-78
2023/05/31 22:11:24;;;;;;;14.13;8.68;;;;;17.10;101642.00;;;;10548290;28;20299;-78
2023/05/31 22:16:27;;;;;;;15.50;8.88;;;;;17.00;101661.00;;;;10549490;28;20228;-79
2023/05/31 22:21:32;;;;;;;14.10;9.43;;;;;16.80;101657.00;;;;10531885;28;20209;-79
2023/05/31 22:26:35;;;;;;;15.13;8.73;;;;;16.70;101672.00;;;;10530123;28;20231;-78
2023/05/31 22:31:37;;;;;;;20.77;9.30;;;;;16.60;101669.00;;;;10508870;28;20201;-77
2023/05/31 22:36:39;;;;;;;15.57;8.70;;;;;16.50;101677.00;;;;10505496;28;20673;-81
2023/05/31 22:41:41;;;;;;;16.35;8.77;;;;;16.40;101677.00;;;;10535227;28;20201;-78
2023/05/31 22:46:44;;;;;;;12.27;8.33;;;;;16.20;101683.00;;;;10546148;28;20212;-78
2023/05/31 22:51:48;;;;;;;15.25;8.75;;;;;16.10;101681.00;;;;10546977;28;20592;-77
2023/05/31 22:56:50;;;;;;;10.60;8.00;;;;;16.00;101674.00;;;;10562530;27;20197;-78
2023/05/31 23:01:52;;;;;;;16.63;8.48;;;;;15.90;101672.00;;;;10538358;28;20198;-78
2023/05/31 23:07:00;;;;;;;15.20;8.90;;;;;15.80;101680.00;;;;10503555;28;20220;-78
2023/05/31 23:12:06;;;;;;;14.73;8.03;;;;;15.70;101682.00;;;;10504232;28;20552;-78
2023/05/31 23:17:09;;;;;;;16.30;8.67;;;;;15.60;101699.00;;;;10513937;28;20270;-78
2023/05/31 23:22:13;;;;;;;13.70;8.27;;;;;15.50;101688.00;;;;10531059;28;20233;-77
2023/05/31 23:27:15;;;;;;;14.00;8.83;;;;;15.40;101688.00;;;;10542609;28;20223;-77
2023/05/31 23:32:17;;;;;;;13.93;7.80;;;;;15.30;101702.00;;;;10496633;28;20635;-77
2023/05/31 23:37:19;;;;;;;13.17;8.10;;;;;15.20;101700.00;;;;10517402;28;20211;-78
2023/05/31 23:42:21;;;;;;;13.90;8.30;;;;;15.10;101698.00;;;;10501849;28;20202;-78
2023/05/31 23:47:23;;;;;;;14.83;8.30;;;;;15.00;101701.00;;;;10502674;28;20213;-77
2023/05/31 23:52:26;;;;;;;17.70;8.27;;;;;14.90;101708.00;;;;10505647;28;20295;-77
2023/05/31 23:57:30;;;;;;;15.50;9.30;;;;;14.80;101709.00;;;;10542880;28;20254;-78
